createdAt,value
2022-08-27T00:03:31.485Z,60.34
2022-08-27T00:08:34.453Z,60.16
2022-08-27T00:13:38.804Z,60.46
2022-08-27T00:18:43.176Z,60.37
2022-08-27T00:23:51.427Z,60.24
2022-08-27T00:28:54.406Z,60.50
2022-08-27T00:33:57.957Z,60.79
2022-08-27T00:39:00.949Z,60.75
2022-08-27T00:44:04.602Z,60.56
2022-08-27T00:49:18.289Z,60.62
2022-08-27T00:54:22.349Z,60.77
2022-08-27T00:59:29.432Z,60.95
2022-08-27T01:04:35.942Z,61.15
2022-08-27T01:09:40.646Z,61.34
2022-08-27T01:14:45.588Z,61.22
2022-08-27T01:19:51.145Z,61.32
2022-08-27T01:25:01.310Z,61.53
2022-08-27T01:30:07.177Z,61.90
2022-08-27T01:35:13.915Z,62.06
2022-08-27T01:40:19.029Z,62.09
2022-08-27T01:45:30.267Z,68.05
2022-08-27T01:50:36.465Z,62.14
2022-08-27T01:55:40.727Z,53.86
2022-08-27T02:00:56.551Z,53.58
2022-08-27T02:06:03.419Z,54.81
2022-08-27T02:11:08.523Z,55.47
2022-08-27T02:16:13.539Z,56.38
2022-08-27T02:21:18.550Z,57.19
2022-08-27T02:26:22.333Z,58.07
2022-08-27T02:31:25.572Z,58.89
2022-08-27T02:36:28.745Z,59.17
2022-08-27T02:41:31.867Z,59.68
2022-08-27T02:46:34.793Z,60.10
2022-08-27T02:51:37.937Z,60.77
2022-08-27T02:56:42.012Z,61.24
2022-08-27T03:01:45.124Z,61.41
2022-08-27T03:06:48.191Z,61.83
2022-08-27T03:11:51.172Z,68.18
2022-08-27T03:16:55.257Z,61.71
2022-08-27T03:21:58.168Z,53.68
2022-08-27T03:27:01.083Z,53.48
2022-08-27T03:32:07.023Z,54.39
2022-08-27T03:37:10.044Z,55.28
2022-08-27T03:42:12.911Z,56.24
2022-08-27T03:47:16.173Z,57.39
2022-08-27T03:52:19.612Z,58.48
2022-08-27T03:57:22.724Z,59.20
2022-08-27T04:02:26.390Z,59.55
2022-08-27T04:07:29.570Z,60.35
2022-08-27T04:12:32.568Z,61.06
2022-08-27T04:17:35.753Z,67.61
2022-08-27T04:22:39.610Z,61.54
2022-08-27T04:27:43.593Z,53.25
2022-08-27T04:32:46.539Z,53.40
2022-08-27T04:37:49.642Z,54.51
2022-08-27T04:42:52.943Z,55.18
2022-08-27T04:47:56.153Z,56.11
2022-08-27T04:52:59.076Z,56.96
2022-08-27T04:58:02.718Z,57.88
2022-08-27T05:03:05.840Z,58.81
2022-08-27T05:08:10.800Z,59.49
2022-08-27T05:13:14.379Z,59.94
2022-08-27T05:18:17.472Z,60.62
2022-08-27T05:23:20.974Z,67.90
2022-08-27T05:28:28.062Z,62.03
2022-08-27T05:33:31.320Z,53.31
2022-08-27T05:38:35.133Z,53.28
2022-08-27T05:43:40.409Z,54.75
2022-08-27T05:48:43.543Z,55.56
2022-08-27T05:53:47.081Z,56.46
2022-08-27T05:59:09.083Z,56.94
2022-08-27T06:04:18.146Z,57.32
2022-08-27T06:09:26.443Z,58.07
2022-08-27T06:14:30.753Z,58.97
2022-08-27T06:19:34.957Z,59.58
2022-08-27T06:24:40.273Z,59.97
2022-08-27T06:29:43.871Z,60.52
2022-08-27T06:34:47.527Z,59.96
2022-08-27T06:39:51.771Z,60.72
2022-08-27T06:44:56.922Z,61.21
2022-08-27T06:50:00.209Z,61.54
2022-08-27T06:55:03.980Z,60.90
2022-08-27T07:00:09.973Z,59.95
2022-08-27T07:05:12.952Z,59.43
2022-08-27T07:10:16.014Z,59.34
2022-08-27T07:15:19.203Z,59.41
2022-08-27T07:20:26.542Z,59.10
2022-08-27T07:25:32.279Z,58.86
2022-08-27T07:30:37.723Z,58.97
2022-08-27T07:35:41.045Z,58.67
2022-08-27T07:40:44.248Z,58.99
2022-08-27T07:45:48.846Z,59.00
2022-08-27T07:50:52.924Z,58.74
2022-08-27T07:55:55.987Z,59.08
2022-08-27T08:00:59.165Z,59.85
2022-08-27T08:06:09.283Z,59.86
2022-08-27T08:11:16.042Z,59.61
2022-08-27T08:16:19.682Z,58.86
2022-08-27T08:21:22.809Z,58.37
2022-08-27T08:26:25.861Z,56.81
2022-08-27T08:31:28.873Z,56.79
2022-08-27T08:36:32.809Z,56.04
2022-08-27T08:41:42.793Z,55.61
2022-08-27T08:47:17.030Z,54.97
2022-08-27T08:52:34.753Z,54.19
2022-08-27T08:58:15.478Z,53.93
2022-08-27T09:03:18.581Z,52.48
2022-08-27T09:08:40.417Z,52.20
2022-08-27T09:13:52.221Z,52.07
2022-08-27T09:18:55.636Z,51.88
2022-08-27T09:24:25.371Z,51.47
2022-08-27T09:29:30.111Z,50.32
2022-08-27T09:34:37.498Z,50.02
2022-08-27T09:39:46.234Z,49.43
2022-08-27T09:44:53.507Z,48.20
2022-08-27T09:50:07.539Z,47.95
2022-08-27T09:55:12.083Z,49.17
2022-08-27T10:00:17.326Z,49.13
2022-08-27T10:05:29.386Z,47.07
2022-08-27T10:10:57.077Z,47.90
2022-08-27T10:16:16.759Z,47.78
2022-08-27T10:21:29.291Z,48.78
2022-08-27T10:26:45.887Z,48.77
2022-08-27T10:32:22.813Z,48.00
2022-08-27T10:37:36.805Z,47.50
2022-08-27T10:43:09.599Z,45.12
2022-08-27T10:48:24.693Z,44.93
2022-08-27T10:53:34.990Z,43.76
2022-08-27T10:59:17.216Z,44.49
2022-08-27T11:04:26.135Z,41.88
2022-08-27T11:10:02.052Z,40.72
2022-08-27T11:15:21.041Z,41.37
2022-08-27T11:20:32.394Z,40.52
2022-08-27T11:26:02.691Z,38.90
2022-08-27T11:31:19.796Z,38.85
2022-08-27T11:36:45.575Z,36.91
2022-08-27T11:42:11.618Z,37.64
2022-08-27T11:47:21.638Z,38.14
2022-08-27T11:52:27.281Z,37.98
2022-08-27T11:57:36.892Z,38.67
2022-08-27T12:02:40.752Z,39.23
2022-08-27T12:07:46.239Z,39.77
2022-08-27T12:13:00.844Z,39.74
2022-08-27T12:18:20.511Z,39.42
2022-08-27T12:23:42.423Z,39.11
2022-08-27T12:28:45.596Z,39.11
2022-08-27T12:33:51.698Z,39.44
2022-08-27T12:38:58.192Z,38.81
2022-08-27T12:44:11.351Z,37.68
2022-08-27T12:49:38.498Z,37.16
2022-08-27T12:54:52.946Z,37.49
2022-08-27T13:00:15.497Z,37.67
2022-08-27T13:05:21.841Z,37.27
2022-08-27T13:10:29.522Z,36.72
2022-08-27T13:15:34.286Z,37.63
2022-08-27T13:20:40.236Z,36.70
2022-08-27T13:25:54.578Z,35.69
2022-08-27T13:30:59.482Z,35.32
2022-08-27T13:36:04.178Z,35.53
2022-08-27T13:41:22.711Z,35.11
2022-08-27T13:46:30.001Z,36.37
2022-08-27T13:51:35.773Z,36.18
2022-08-27T13:56:57.649Z,36.40
2022-08-27T14:02:12.103Z,35.43
2022-08-27T14:07:25.943Z,36.73
2022-08-27T14:12:33.094Z,36.72
2022-08-27T14:17:38.437Z,36.56
2022-08-27T14:22:42.457Z,36.22
2022-08-27T14:27:54.379Z,36.16
2022-08-27T14:33:00.583Z,36.19
2022-08-27T14:38:18.745Z,35.76
2022-08-27T14:43:22.984Z,34.62
2022-08-27T14:48:30.654Z,34.77
2022-08-27T14:53:33.566Z,34.60
2022-08-27T14:58:36.747Z,35.39
2022-08-27T15:03:47.654Z,35.93
2022-08-27T15:08:51.547Z,35.98
2022-08-27T15:13:56.333Z,37.10
2022-08-27T15:19:01.044Z,36.14
2022-08-27T15:24:08.958Z,35.60
2022-08-27T15:29:12.336Z,36.13
2022-08-27T15:34:15.530Z,36.56
2022-08-27T15:39:18.492Z,36.77
2022-08-27T15:44:21.520Z,36.84
2022-08-27T15:49:24.485Z,37.45
2022-08-27T15:54:28.130Z,37.23
2022-08-27T15:59:32.324Z,37.39
2022-08-27T16:04:35.228Z,39.48
2022-08-27T16:09:38.703Z,44.83
2022-08-27T16:14:41.585Z,48.24
2022-08-27T16:19:44.508Z,50.17
2022-08-27T16:24:47.562Z,50.54
2022-08-27T16:29:51.100Z,51.59
2022-08-27T16:34:55.902Z,51.90
2022-08-27T16:39:59.062Z,52.09
2022-08-27T16:45:02.098Z,52.81
2022-08-27T16:50:26.166Z,53.50
2022-08-27T16:55:29.580Z,53.56
2022-08-27T17:00:33.497Z,53.71
2022-08-27T17:05:36.713Z,53.46
2022-08-27T17:10:45.821Z,53.31
2022-08-27T17:15:52.910Z,53.28
2022-08-27T17:20:57.784Z,53.40
2022-08-27T17:26:01.407Z,53.37
2022-08-27T17:31:04.737Z,53.39
2022-08-27T17:36:09.745Z,53.19
2022-08-27T17:41:20.084Z,53.09
2022-08-27T17:46:24.201Z,53.00
2022-08-27T17:51:28.041Z,53.11
2022-08-27T17:56:30.989Z,53.72
2022-08-27T18:01:34.537Z,54.16
2022-08-27T18:06:39.218Z,54.73
2022-08-27T18:11:43.161Z,55.06
2022-08-27T18:16:46.899Z,54.88
2022-08-27T18:21:50.660Z,54.94
2022-08-27T18:26:53.855Z,54.95
2022-08-27T18:31:57.029Z,55.53
2022-08-27T18:37:00.141Z,55.67
2022-08-27T18:42:04.086Z,56.35
2022-08-27T18:47:07.252Z,56.43
2022-08-27T18:52:12.256Z,56.47
2022-08-27T18:57:15.126Z,56.23
2022-08-27T19:02:21.050Z,56.25
2022-08-27T19:07:25.152Z,56.20
2022-08-27T19:12:28.058Z,56.65
2022-08-27T19:17:33.835Z,58.31
2022-08-27T19:22:36.840Z,60.04
2022-08-27T19:27:40.075Z,61.45
2022-08-27T19:32:43.647Z,61.71
2022-08-27T19:37:52.989Z,65.50
2022-08-27T19:42:56.419Z,57.71
2022-08-27T19:47:59.865Z,56.27
2022-08-27T19:53:02.990Z,58.47
2022-08-27T19:58:05.824Z,59.01
2022-08-27T20:03:10.072Z,59.79
2022-08-27T20:08:13.273Z,60.55
2022-08-27T20:13:18.292Z,60.98
2022-08-27T20:18:23.161Z,60.72
2022-08-27T20:23:26.049Z,60.71
2022-08-27T20:28:43.699Z,61.21
2022-08-27T20:33:46.936Z,61.54
2022-08-27T20:38:50.258Z,61.50
2022-08-27T20:43:53.233Z,69.05
2022-08-27T20:48:56.669Z,61.31
2022-08-27T20:54:01.125Z,54.05
2022-08-27T20:59:23.177Z,55.54
2022-08-27T21:04:26.549Z,57.09
2022-08-27T21:09:29.540Z,58.02
2022-08-27T21:14:33.128Z,59.42
2022-08-27T21:19:38.191Z,60.32
2022-08-27T21:24:41.111Z,61.37
2022-08-27T21:29:44.983Z,67.19
2022-08-27T21:34:48.000Z,62.08
2022-08-27T21:39:52.357Z,56.05
2022-08-27T21:44:55.408Z,56.94
2022-08-27T21:49:58.316Z,58.74
2022-08-27T21:55:01.211Z,60.54
2022-08-27T22:00:16.852Z,66.58
2022-08-27T22:05:20.471Z,61.47
2022-08-27T22:10:23.437Z,54.87
2022-08-27T22:15:26.546Z,56.31
2022-08-27T22:20:29.849Z,58.54
2022-08-27T22:25:33.262Z,59.40
2022-08-27T22:30:36.170Z,61.12
2022-08-27T22:35:39.650Z,67.10
2022-08-27T22:40:42.604Z,60.87
2022-08-27T22:45:45.712Z,54.18
2022-08-27T22:50:49.088Z,55.51
2022-08-27T22:55:52.139Z,57.29
2022-08-27T23:00:55.212Z,59.04
2022-08-27T23:05:58.369Z,60.40
2022-08-27T23:11:02.616Z,65.42
2022-08-27T23:16:06.149Z,57.84
2022-08-27T23:21:11.278Z,58.28
2022-08-27T23:26:32.678Z,59.70
2022-08-27T23:31:35.717Z,61.31
2022-08-27T23:36:38.712Z,66.91
2022-08-27T23:41:43.987Z,60.60
2022-08-27T23:46:48.727Z,54.85
2022-08-27T23:51:53.725Z,55.45
2022-08-27T23:56:56.711Z,57.40
